Time;durP1;ratioP1;P1;durP2;ratioP2;P2;SDS_P1;SDS_P2;PMS_P1;PMS_P2;Temp;Humidity;BMP_temperature;BMP_pressure;BME280_temperature;BME280_humidity;BME280_pressure;Samples;Min_cycle;Max_cycle;Signal;HPM_P1;HPM_P2
2023/02/17 00:02:02;;;;;;;37.80;23.50;;;;;;;10.69;49.72;100366.20;145564;1263;97441;-76
2023/02/17 00:05:24;;;;;;;39.70;23.60;;;;;;;10.68;49.71;100357.34;145433;1256;97439;-77
2023/02/17 00:08:46;;;;;;;40.80;24.70;;;;;;;10.68;49.78;100358.54;145489;1255;97745;-77
2023/02/17 00:12:08;;;;;;;42.50;24.50;;;;;;;10.68;49.78;100356.45;145485;1256;110777;-77
2023/02/17 00:15:30;;;;;;;46.00;25.60;;;;;;;10.68;49.80;100353.33;145456;1255;96649;-76
2023/02/17 00:18:58;;;;;;;51.20;26.10;;;;;;;10.68;49.68;100348.63;145522;1254;96581;-76
2023/02/17 00:22:20;;;;;;;39.80;23.80;;;;;;;10.67;49.68;100347.59;145100;1257;102450;-77
2023/02/17 00:25:42;;;;;;;42.40;26.00;;;;;;;10.68;49.80;100349.16;145282;1251;96541;-76
2023/02/17 00:29:03;;;;;;;41.40;24.30;;;;;;;10.67;49.65;100347.41;145478;1257;97860;-77
2023/02/17 00:32:26;;;;;;;40.80;24.90;;;;;;;10.67;49.75;100344.61;145524;1254;105909;-77
2023/02/17 00:35:48;;;;;;;43.20;24.80;;;;;;;10.68;49.67;100345.67;145101;1256;96923;-76
2023/02/17 00:39:16;;;;;;;46.40;25.80;;;;;;;10.67;49.73;100338.54;145642;1251;97879;-75
2023/02/17 00:42:38;;;;;;;37.80;24.40;;;;;;;10.66;49.63;100334.33;145546;1251;97157;-75
2023/02/17 00:46:02;;;;;;;43.10;25.90;;;;;;;10.66;49.51;100328.95;145525;1257;96478;-78
2023/02/17 00:49:26;;;;;;;43.50;25.60;;;;;;;10.67;49.70;100324.27;145443;1254;97884;-78
2023/02/17 00:52:48;;;;;;;40.20;24.50;;;;;;;10.67;49.84;100323.75;145516;1251;97447;-76
2023/02/17 00:56:10;;;;;;;41.40;25.10;;;;;;;10.66;49.72;100325.29;145566;1255;97477;-77
2023/02/17 00:59:32;;;;;;;44.70;25.70;;;;;;;10.66;49.74;100319.89;145324;1268;96602;-77
2023/02/17 01:02:53;;;;;;;44.30;25.30;;;;;;;10.66;49.68;100315.22;145436;1267;96610;-76
2023/02/17 01:06:26;;;;;;;44.60;25.60;;;;;;;10.67;49.65;100314.02;145458;1251;96657;-77
2023/02/17 01:09:48;;;;;;;41.90;24.50;;;;;;;10.67;49.76;100313.00;145478;1253;109585;-76
2023/02/17 01:13:11;;;;;;;45.00;24.90;;;;;;;10.67;49.79;100308.30;145344;1253;96603;-78
2023/02/17 01:16:37;;;;;;;36.10;23.10;;;;;;;10.67;49.50;100305.00;145571;1256;97476;-76
2023/02/17 01:19:59;;;;;;;45.10;25.00;;;;;;;10.69;49.61;100302.40;145448;1255;101189;-76
2023/02/17 01:23:21;;;;;;;44.40;25.60;;;;;;;10.69;49.71;100300.69;145374;1257;96602;-78
2023/02/17 01:26:47;;;;;;;46.10;26.30;;;;;;;10.70;49.65;100294.08;145548;1256;97754;-76
2023/02/17 01:30:09;;;;;;;38.80;24.80;;;;;;;10.70;49.83;100289.06;145328;1251;107542;-76
2023/02/17 01:33:31;;;;;;;45.50;25.50;;;;;;;10.70;49.50;100280.20;145453;1251;97735;-76
2023/02/17 01:36:53;;;;;;;42.60;24.30;;;;;;;10.71;49.73;100276.05;145581;1251;96559;-76
2023/02/17 01:40:16;;;;;;;42.20;24.60;;;;;;;10.71;49.80;100280.40;145504;1256;97473;-77
2023/02/17 01:43:38;;;;;;;38.40;22.40;;;;;;;10.72;49.84;100276.77;145452;1254;97856;-77
2023/02/17 01:46:59;;;;;;;43.10;25.00;;;;;;;10.73;49.70;100271.39;145614;1254;96564;-77
2023/02/17 01:50:24;;;;;;;45.00;25.20;;;;;;;10.73;49.63;100273.31;145647;1256;97784;-77
2023/02/17 01:53:56;;;;;;;44.30;26.60;;;;;;;10.73;49.81;100278.88;145404;1256;96583;-77
2023/02/17 01:57:21;;;;;;;40.20;23.70;;;;;;;10.74;49.84;100277.14;145476;1256;96601;-77
2023/02/17 02:00:43;;;;;;;41.80;24.00;;;;;;;10.73;49.67;100272.96;145529;1256;96744;-77
2023/02/17 02:04:08;;;;;;;40.80;25.70;;;;;;;10.74;49.75;100271.23;145582;1251;97753;-79
2023/02/17 02:07:38;;;;;;;41.90;24.00;;;;;;;10.74;49.54;100267.09;145387;1256;97847;-76
2023/02/17 02:11:02;;;;;;;42.90;24.60;;;;;;;10.75;49.67;100261.88;145435;1256;97618;-75
2023/02/17 02:14:23;;;;;;;42.00;24.30;;;;;;;10.74;49.88;100263.95;145442;1253;97184;-78
2023/02/17 02:18:13;;;;;;;45.30;25.40;;;;;;;10.75;49.66;100262.39;145715;1254;96561;-77
2023/02/17 02:21:47;;;;;;;39.40;24.10;;;;;;;10.75;49.71;100256.83;145423;1255;109847;-76
2023/02/17 02:26:06;;;;;;;42.40;25.40;;;;;;;10.75;49.64;100251.27;145334;1256;110862;-77
2023/02/17 02:30:01;;;;;;;45.70;24.80;;;;;;;10.74;49.55;100249.01;144703;1264;109784;-76
2023/02/17 02:33:35;;;;;;;38.10;23.20;;;;;;;10.74;49.80;100251.27;144424;1263;109540;-77
2023/02/17 02:37:11;;;;;;;39.90;24.30;;;;;;;10.75;49.81;100252.15;144360;1262;109496;-77
2023/02/17 02:40:36;;;;;;;44.20;27.00;;;;;;;10.76;49.66;100253.02;144123;1280;110653;-78
2023/02/17 02:43:58;;;;;;;44.50;25.40;;;;;;;10.75;49.90;100248.84;144410;1267;110699;-76
2023/02/17 02:47:42;;;;;;;37.10;23.60;;;;;;;10.76;49.71;100248.67;144375;1267;97570;-76
2023/02/17 02:51:09;;;;;;;39.50;23.80;;;;;;;10.76;49.78;100247.13;144461;1263;109875;-77
2023/02/17 02:54:51;;;;;;;45.20;24.40;;;;;;;10.78;49.73;100241.08;144412;1263;108908;-78
2023/02/17 02:58:24;;;;;;;40.60;24.10;;;;;;;10.78;49.99;100236.05;143985;1269;110057;-76
2023/02/17 03:01:58;;;;;;;40.50;23.60;;;;;;;10.78;49.69;100230.13;144674;1270;110902;-77
2023/02/17 03:05:47;;;;;;;45.70;26.00;;;;;;;10.79;49.61;100236.05;144706;1264;110542;-78
2023/02/17 03:09:15;;;;;;;45.90;26.70;;;;;;;10.79;49.62;100241.10;144950;1252;110134;-77
2023/02/17 03:12:39;;;;;;;43.60;24.30;;;;;;;10.79;49.85;100238.51;145406;1256;111742;-78
2023/02/17 03:16:01;;;;;;;43.80;25.60;;;;;;;10.80;49.77;100234.17;144952;1261;97463;-77
2023/02/17 03:19:23;;;;;;;43.50;24.90;;;;;;;10.81;49.73;100235.23;145351;1256;97945;-77
2023/02/17 03:22:46;;;;;;;40.20;25.00;;;;;;;10.80;49.87;100232.45;145343;1254;102129;-77
2023/02/17 03:26:08;;;;;;;39.00;23.90;;;;;;;10.81;49.86;100241.33;145366;1256;96595;-76
2023/02/17 03:29:30;;;;;;;42.40;25.30;;;;;;;10.82;49.73;100240.80;145306;1254;96548;-77
2023/02/17 03:32:52;;;;;;;47.40;27.70;;;;;;;10.82;49.88;100235.41;145288;1256;108525;-76
2023/02/17 03:36:14;;;;;;;37.80;22.70;;;;;;;10.81;49.72;100236.29;145223;1256;96638;-75
2023/02/17 03:39:36;;;;;;;39.00;24.00;;;;;;;10.81;49.91;100237.85;145248;1256;97010;-77
2023/02/17 03:42:57;;;;;;;40.80;23.30;;;;;;;10.81;49.80;100229.67;145423;1254;97406;-75
2023/02/17 03:46:20;;;;;;;42.30;24.10;;;;;;;10.82;50.10;100233.15;145306;1254;96631;-76
2023/02/17 03:49:42;;;;;;;43.70;25.30;;;;;;;10.82;49.85;100242.71;145132;1264;96631;-78
2023/02/17 03:53:04;;;;;;;47.90;26.10;;;;;;;10.82;49.91;100242.71;145277;1256;96615;-77
2023/02/17 03:56:25;;;;;;;37.10;23.10;;;;;;;10.82;50.05;100241.15;145517;1256;96552;-78
2023/02/17 03:59:47;;;;;;;44.10;25.50;;;;;;;10.81;50.16;100234.72;145582;1256;97825;-77
2023/02/17 04:03:09;;;;;;;43.30;25.30;;;;;;;10.82;50.09;100225.34;145278;1257;109768;-75
2023/02/17 04:06:31;;;;;;;40.20;23.50;;;;;;;10.81;50.10;100217.50;145280;1254;97687;-78
2023/02/17 04:09:53;;;;;;;40.70;24.70;;;;;;;10.81;49.98;100217.15;145493;1256;97458;-77
2023/02/17 04:13:14;;;;;;;46.50;26.50;;;;;;;10.80;50.17;100210.51;145534;1257;102063;-78
2023/02/17 04:16:38;;;;;;;42.20;25.30;;;;;;;10.79;50.10;100209.29;145482;1256;96708;-77
2023/02/17 04:19:59;;;;;;;40.20;23.60;;;;;;;10.79;50.14;100219.00;145405;1257;97864;-78
2023/02/17 04:23:21;;;;;;;44.20;25.90;;;;;;;10.78;50.25;100218.66;145459;1257;97447;-77
2023/02/17 04:26:43;;;;;;;40.20;24.20;;;;;;;10.79;50.12;100221.61;145391;1257;108460;-78
2023/02/17 04:30:06;;;;;;;35.60;22.10;;;;;;;10.80;50.19;100219.02;145311;1257;97358;-78
2023/02/17 04:33:27;;;;;;;42.00;23.60;;;;;;;10.79;50.22;100220.58;145419;1256;97890;-78
2023/02/17 04:36:49;;;;;;;39.30;24.80;;;;;;;10.80;50.44;100213.80;145362;1267;96612;-76
2023/02/17 04:40:11;;;;;;;37.70;23.70;;;;;;;10.79;50.35;100204.95;145176;1257;97340;-78
2023/02/17 04:43:33;;;;;;;36.50;24.40;;;;;;;10.79;50.42;100199.04;145355;1268;97979;-79
2023/02/17 04:46:55;;;;;;;39.20;23.00;;;;;;;10.79;50.43;100198.85;145396;1256;97460;-78
2023/02/17 04:50:17;;;;;;;41.00;24.10;;;;;;;10.79;50.35;100195.55;145419;1257;96543;-78
2023/02/17 04:53:41;;;;;;;44.20;25.50;;;;;;;10.79;50.49;100197.82;145483;1256;97818;-76
2023/02/17 04:57:03;;;;;;;35.10;22.60;;;;;;;10.80;50.58;100194.87;145697;1255;97458;-76
2023/02/17 05:00:25;;;;;;;40.70;23.80;;;;;;;10.81;50.51;100188.81;145268;1255;109794;-79
2023/02/17 05:03:47;;;;;;;37.00;23.60;;;;;;;10.80;50.54;100174.20;145082;1254;97843;-76
2023/02/17 05:07:09;;;;;;;40.70;24.70;;;;;;;10.81;50.56;100170.55;145537;1256;97569;-76
2023/02/17 05:10:34;;;;;;;35.30;22.60;;;;;;;10.80;50.62;100174.03;145453;1255;102035;-76
2023/02/17 05:13:56;;;;;;;41.50;23.90;;;;;;;10.81;50.72;100174.05;145528;1256;101852;-79
2023/02/17 05:17:18;;;;;;;40.00;23.90;;;;;;;10.81;50.82;100171.95;145423;1257;96635;-76
2023/02/17 05:20:39;;;;;;;39.90;24.20;;;;;;;10.81;50.72;100169.52;145603;1254;96564;-78
2023/02/17 05:24:01;;;;;;;42.80;24.70;;;;;;;10.80;50.85;100169.86;145469;1254;131509;-78
2023/02/17 05:27:23;;;;;;;39.10;23.90;;;;;;;10.81;50.68;100167.44;145464;1255;97847;-76
2023/02/17 05:30:48;;;;;;;38.80;23.80;;;;;;;10.80;50.75;100163.61;145485;1255;96696;-77
2023/02/17 05:34:10;;;;;;;35.50;23.00;;;;;;;10.80;50.92;100160.45;145337;1263;97905;-77
2023/02/17 05:37:31;;;;;;;36.90;23.30;;;;;;;10.80;51.04;100155.05;145349;1251;96617;-76
2023/02/17 05:40:53;;;;;;;40.30;23.80;;;;;;;10.80;51.13;100155.94;145422;1257;97430;-77
2023/02/17 05:44:15;;;;;;;39.40;24.20;;;;;;;10.80;51.19;100155.05;145389;1256;96710;-76
2023/02/17 05:47:37;;;;;;;35.20;21.90;;;;;;;10.79;51.08;100154.70;145367;1254;96623;-77
2023/02/17 05:50:59;;;;;;;38.20;24.40;;;;;;;10.79;51.07;100148.11;145458;1255;96711;-77
2023/02/17 05:54:20;;;;;;;42.40;23.60;;;;;;;10.79;51.20;100147.74;145649;1255;110383;-78
2023/02/17 05:57:42;;;;;;;36.10;22.20;;;;;;;10.80;51.12;100147.92;145340;1256;96577;-77
2023/02/17 06:01:09;;;;;;;36.40;21.70;;;;;;;10.80;51.31;100145.86;145614;1255;96550;-78
2023/02/17 06:04:38;;;;;;;42.30;24.80;;;;;;;10.80;51.25;100143.23;145249;1257;102923;-75
2023/02/17 06:08:00;;;;;;;35.70;22.70;;;;;;;10.79;51.32;100138.35;145287;1256;102091;-77
2023/02/17 06:11:21;;;;;;;39.20;24.00;;;;;;;10.79;51.27;100143.05;145658;1265;97856;-78
2023/02/17 06:14:43;;;;;;;37.90;23.30;;;;;;;10.79;51.39;100141.48;145570;1256;97853;-77
2023/02/17 06:18:05;;;;;;;38.20;24.10;;;;;;;10.80;51.48;100144.79;145695;1256;106672;-78
2023/02/17 06:21:27;;;;;;;41.40;23.80;;;;;;;10.79;51.56;100142.88;145416;1255;96632;-78
2023/02/17 06:24:49;;;;;;;39.50;22.80;;;;;;;10.79;51.65;100145.30;145680;1255;96655;-77
2023/02/17 06:28:11;;;;;;;37.30;23.60;;;;;;;10.80;51.53;100147.75;145584;1256;97451;-76
2023/02/17 06:31:33;;;;;;;35.00;23.00;;;;;;;10.80;51.51;100145.52;145563;1255;97853;-76
2023/02/17 06:34:55;;;;;;;43.90;25.60;;;;;;;10.81;51.52;100144.66;145438;1254;96650;-81
2023/02/17 06:38:17;;;;;;;45.30;24.20;;;;;;;10.81;51.54;100149.17;145384;1259;96616;-78
2023/02/17 06:41:41;;;;;;;39.60;23.60;;;;;;;10.83;51.72;100141.91;145315;1257;97850;-77
2023/02/17 06:45:04;;;;;;;40.00;24.20;;;;;;;10.84;51.65;100138.81;145403;1256;97968;-77
2023/02/17 06:48:26;;;;;;;41.00;25.60;;;;;;;10.86;51.69;100130.85;145231;1254;96520;-77
2023/02/17 06:51:48;;;;;;;38.70;23.80;;;;;;;10.89;51.57;100121.70;145264;1256;98433;-78
2023/02/17 06:55:10;;;;;;;38.80;23.70;;;;;;;10.92;51.59;100120.34;145247;1257;109268;-77
2023/02/17 06:58:34;;;;;;;43.80;23.70;;;;;;;10.94;51.48;100124.73;145257;1254;96543;-77
2023/02/17 07:01:56;;;;;;;42.40;24.90;;;;;;;10.97;51.51;100124.10;145309;1254;97033;-78
2023/02/17 07:05:26;;;;;;;38.60;23.40;;;;;;;11.01;51.41;100119.12;145470;1256;97377;-78
2023/02/17 07:08:49;;;;;;;45.20;24.80;;;;;;;11.06;51.40;100118.16;145429;1256;102224;-77
2023/02/17 07:12:10;;;;;;;42.90;25.20;;;;;;;11.11;51.39;100120.15;145133;1257;96647;-78
2023/02/17 07:15:32;;;;;;;40.00;23.20;;;;;;;11.15;51.32;100123.52;145305;1256;97788;-76
2023/02/17 07:18:54;;;;;;;42.80;25.60;;;;;;;11.20;51.35;100121.00;145292;1257;107404;-77
2023/02/17 07:22:16;;;;;;;41.20;24.30;;;;;;;11.29;51.14;100111.23;145384;1254;96639;-78
2023/02/17 07:25:38;;;;;;;36.70;23.10;;;;;;;11.40;51.05;100113.15;145126;1257;97745;-77
2023/02/17 07:29:00;;;;;;;33.50;21.80;;;;;;;11.51;51.01;100108.28;145439;1257;96621;-77
2023/02/17 07:32:22;;;;;;;39.10;23.90;;;;;;;11.66;50.80;100111.97;145377;1269;96604;-77
2023/02/17 07:35:44;;;;;;;41.80;24.40;;;;;;;11.75;50.68;100110.20;145178;1267;96593;-75
2023/02/17 07:39:06;;;;;;;37.10;23.50;;;;;;;11.85;50.66;100110.70;145428;1256;96613;-78
2023/02/17 07:42:28;;;;;;;45.00;25.10;;;;;;;11.89;50.47;100107.82;145472;1251;96576;-79
2023/02/17 07:45:53;;;;;;;35.30;23.40;;;;;;;11.89;50.37;100108.87;145605;1254;97258;-77
2023/02/17 07:49:16;;;;;;;39.20;24.20;;;;;;;11.88;50.49;100110.25;145396;1254;110445;-75
2023/02/17 07:52:38;;;;;;;41.20;24.80;;;;;;;11.87;50.34;100109.35;145331;1256;97494;-76
2023/02/17 07:56:04;;;;;;;35.40;23.80;;;;;;;11.88;50.27;100107.98;145507;1257;96568;-78
2023/02/17 07:59:26;;;;;;;38.20;23.00;;;;;;;11.89;50.27;100103.30;145457;1255;103042;-77
2023/02/17 08:02:51;;;;;;;35.70;23.10;;;;;;;11.93;50.20;100107.52;145438;1256;96640;-78
2023/02/17 08:06:16;;;;;;;35.50;22.70;;;;;;;11.96;50.28;100108.95;145463;1256;96570;-77
2023/02/17 08:13:18;;;;;;;40.10;24.10;;;;;;;12.09;50.01;100100.95;145523;1257;103363;-80
2023/02/17 08:16:40;;;;;;;35.90;22.70;;;;;;;12.14;49.94;100102.05;145507;1254;96629;-77
2023/02/17 08:20:02;;;;;;;35.80;22.90;;;;;;;12.17;49.85;100097.21;145558;1256;97739;-79
2023/02/17 08:23:29;;;;;;;37.10;23.50;;;;;;;12.19;49.65;100096.91;145421;1257;106605;-81
2023/02/17 08:26:51;;;;;;;36.10;22.70;;;;;;;12.21;49.78;100098.14;145341;1256;97881;-78
2023/02/17 08:30:13;;;;;;;37.60;22.90;;;;;;;12.22;49.71;100097.46;145420;1252;97875;-75
2023/02/17 08:33:37;;;;;;;38.50;24.70;;;;;;;12.23;49.62;100099.73;145265;1257;97906;-75
2023/02/17 08:37:04;;;;;;;36.20;23.40;;;;;;;12.23;49.70;100089.98;145312;1257;97469;-76
2023/02/17 08:40:26;;;;;;;35.20;20.30;;;;;;;12.26;49.57;100084.61;145259;1256;97448;-78
2023/02/17 08:43:48;;;;;;;35.40;22.80;;;;;;;12.32;49.76;100083.45;145246;1257;96615;-77
2023/02/17 08:47:10;;;;;;;37.70;23.50;;;;;;;12.37;49.54;100083.15;145504;1256;96642;-76
2023/02/17 08:50:32;;;;;;;33.80;22.70;;;;;;;12.40;49.53;100079.54;145675;1254;96609;-75
2023/02/17 08:53:56;;;;;;;37.00;22.50;;;;;;;12.47;49.37;100079.11;145536;1256;97467;-76
2023/02/17 08:57:19;;;;;;;34.20;22.80;;;;;;;12.54;49.25;100074.64;145440;1254;97672;-75
2023/02/17 09:00:41;;;;;;;36.80;22.70;;;;;;;12.58;49.15;100074.86;145463;1253;96539;-75
2023/02/17 09:04:06;;;;;;;35.40;21.20;;;;;;;12.62;49.23;100071.76;145190;1257;96686;-76
2023/02/17 09:07:28;;;;;;;36.00;21.40;;;;;;;12.67;49.13;100069.73;145629;1256;109867;-75
2023/02/17 09:10:50;;;;;;;32.30;21.30;;;;;;;12.72;49.13;100074.30;145576;1256;97845;-76
2023/02/17 09:14:12;;;;;;;31.80;21.80;;;;;;;12.74;49.14;100074.84;145341;1254;97847;-78
2023/02/17 09:17:38;;;;;;;33.30;21.70;;;;;;;12.74;48.99;100071.17;145205;1256;102145;-76
2023/02/17 09:21:09;;;;;;;32.30;21.40;;;;;;;12.73;48.99;100074.33;145487;1256;102169;-76
2023/02/17 09:24:33;;;;;;;32.10;21.30;;;;;;;12.72;48.86;100068.90;145438;1256;102099;-79
2023/02/17 09:27:54;;;;;;;34.60;21.00;;;;;;;12.71;49.15;100068.36;145307;1256;100980;-75
2023/02/17 09:31:24;;;;;;;31.80;20.80;;;;;;;12.71;49.20;100062.78;145342;1257;102241;-75
2023/02/17 09:34:49;;;;;;;31.00;20.70;;;;;;;12.70;49.11;100055.46;145535;1257;102154;-75
2023/02/17 09:38:11;;;;;;;33.30;21.90;;;;;;;12.70;49.10;100053.02;145439;1265;102248;-78
2023/02/17 09:41:46;;;;;;;34.00;20.40;;;;;;;12.70;49.02;100051.09;145554;1256;96540;-78
2023/02/17 09:45:25;;;;;;;34.40;21.30;;;;;;;12.69;49.19;100046.91;145623;1256;101967;-75
2023/02/17 09:48:51;;;;;;;29.00;20.30;;;;;;;12.68;49.23;100036.23;145312;1253;102201;-76
2023/02/17 09:52:21;;;;;;;29.20;20.20;;;;;;;12.69;49.23;100028.23;145441;1256;102188;-78
2023/02/17 09:55:48;;;;;;;29.40;19.40;;;;;;;12.72;49.26;100019.91;145671;1254;101851;-74
2023/02/17 09:59:17;;;;;;;26.90;18.70;;;;;;;12.74;49.45;100018.00;145316;1254;101029;-74
2023/02/17 10:03:08;;;;;;;33.30;21.10;;;;;;;12.75;49.28;100011.55;145518;1256;102224;-77
2023/02/17 10:06:36;;;;;;;30.30;20.40;;;;;;;12.76;49.33;100014.02;145447;1264;102202;-74
2023/02/17 10:10:11;;;;;;;31.60;19.90;;;;;;;12.75;49.30;100014.70;145453;1256;101942;-77
2023/02/17 10:13:33;;;;;;;35.10;22.20;;;;;;;12.74;49.40;100013.29;145633;1254;102929;-75
2023/02/17 10:17:07;;;;;;;29.20;20.20;;;;;;;12.72;49.24;100013.63;145367;1257;96554;-76
2023/02/17 10:20:32;;;;;;;31.30;20.70;;;;;;;12.68;49.55;100013.58;145522;1257;102106;-76
2023/02/17 10:23:54;;;;;;;32.00;19.60;;;;;;;12.66;49.53;100012.17;145346;1257;102130;-77
2023/02/17 10:27:43;;;;;;;30.10;20.60;;;;;;;12.64;49.64;100005.70;145500;1251;97461;-76
2023/02/17 10:31:09;;;;;;;;;;;;;;;12.61;49.70;100002.90;145404;1258;102809;-77
2023/02/17 10:34:37;;;;;;;29.30;19.20;;;;;;;12.60;49.69;99991.89;145504;1256;103363;-76
2023/02/17 10:38:14;;;;;;;26.50;19.80;;;;;;;12.59;49.73;99991.55;145341;1266;102124;-75
2023/02/17 10:41:37;;;;;;;27.90;20.10;;;;;;;12.58;49.91;99983.85;145542;1256;101927;-77
2023/02/17 10:45:05;;;;;;;32.50;20.20;;;;;;;12.59;50.00;99973.75;145392;1255;97349;-77
2023/02/17 10:48:34;;;;;;;27.80;19.70;;;;;;;12.59;49.87;99964.35;145863;1257;100767;-76
2023/02/17 10:52:00;;;;;;;34.00;21.50;;;;;;;12.59;50.14;99956.85;145271;1257;102175;-80
2023/02/17 10:55:32;;;;;;;32.20;17.80;;;;;;;12.62;50.23;99953.55;145479;1253;102345;-77
2023/02/17 10:58:58;;;;;;;32.60;19.60;;;;;;;12.67;50.17;99946.10;145262;1257;102932;-78
2023/02/17 11:02:33;;;;;;;27.90;19.20;;;;;;;12.72;50.16;99943.70;145114;1257;102151;-78
2023/02/17 11:06:04;;;;;;;33.10;20.70;;;;;;;12.77;50.13;99936.24;145298;1256;102159;-76
2023/02/17 11:09:31;;;;;;;30.70;19.60;;;;;;;12.78;50.04;99927.36;145333;1260;103200;-76
2023/02/17 11:12:54;;;;;;;30.20;20.00;;;;;;;12.80;50.23;99915.86;145333;1256;102121;-78
2023/02/17 11:16:45;;;;;;;30.00;19.50;;;;;;;12.81;50.23;99909.93;144921;1254;101852;-75
2023/02/17 11:20:14;;;;;;;28.80;19.60;;;;;;;12.81;50.25;99899.73;145109;1257;102774;-77
2023/02/17 11:23:49;;;;;;;33.20;20.70;;;;;;;12.81;50.24;99890.05;145204;1257;96654;-76
2023/02/17 11:27:11;;;;;;;30.20;19.00;;;;;;;12.81;50.30;99884.48;145084;1256;102477;-77
2023/02/17 11:30:34;;;;;;;30.60;20.20;;;;;;;12.81;50.63;99877.85;145070;1266;97038;-75
2023/02/17 11:33:57;;;;;;;27.80;19.10;;;;;;;12.82;50.78;99867.73;145919;1257;97748;-76
2023/02/17 11:37:23;;;;;;;31.20;19.40;;;;;;;12.82;51.03;99857.11;145357;1259;96990;-76
2023/02/17 11:40:52;;;;;;;25.50;19.10;;;;;;;12.82;51.16;99846.30;145726;1255;107642;-77
2023/02/17 11:44:27;;;;;;;29.60;19.80;;;;;;;12.83;51.27;99838.63;145981;1252;107517;-76
2023/02/17 11:48:06;;;;;;;29.60;20.20;;;;;;;12.83;51.23;99838.80;145671;1257;107464;-77
2023/02/17 11:51:55;;;;;;;33.00;20.90;;;;;;;12.82;51.34;99830.41;145482;1254;107470;-78
2023/02/17 11:55:22;;;;;;;28.20;19.40;;;;;;;12.82;51.38;99826.93;145347;1254;107221;-77
2023/02/17 11:59:00;;;;;;;28.10;18.80;;;;;;;12.82;51.31;99819.42;145312;1257;107750;-75
2023/02/17 12:02:39;;;;;;;25.10;18.70;;;;;;;12.81;51.23;99815.24;145296;1254;107323;-75
2023/02/17 12:06:04;;;;;;;33.20;22.30;;;;;;;12.80;51.42;99806.88;145341;1257;107510;-76
2023/02/17 12:09:49;;;;;;;27.90;19.60;;;;;;;12.77;51.56;99799.70;145218;1254;107564;-77
2023/02/17 12:13:36;;;;;;;27.60;18.80;;;;;;;12.76;51.53;99788.89;145180;1257;107039;-77
2023/02/17 12:17:20;;;;;;;28.20;19.30;;;;;;;12.76;51.52;99774.07;145267;1254;107205;-77
2023/02/17 12:21:00;;;;;;;30.40;19.50;;;;;;;12.75;51.53;99763.27;145454;1256;106639;-76
2023/02/17 12:24:39;;;;;;;27.00;18.40;;;;;;;12.74;51.54;99748.95;145450;1257;107295;-77
2023/02/17 12:28:29;;;;;;;30.20;19.60;;;;;;;12.72;51.67;99737.42;145537;1258;107529;-78
2023/02/17 12:31:51;;;;;;;30.20;20.00;;;;;;;12.71;51.65;99723.65;145666;1257;108483;-78
2023/02/17 12:35:21;;;;;;;27.30;18.70;;;;;;;12.70;51.73;99712.67;145728;1257;108220;-76
2023/02/17 12:38:49;;;;;;;23.20;17.80;;;;;;;12.67;51.85;99704.80;145894;1264;107514;-78
2023/02/17 12:42:32;;;;;;;27.30;18.30;;;;;;;12.67;51.97;99700.11;145266;1257;107204;-78
2023/02/17 12:45:57;;;;;;;26.20;17.80;;;;;;;12.65;51.85;99699.56;145234;1256;107089;-76
2023/02/17 12:49:24;;;;;;;27.70;19.80;;;;;;;12.64;51.84;99697.30;145686;1266;107086;-77
2023/02/17 12:52:49;;;;;;;26.20;17.70;;;;;;;12.62;51.99;99696.77;145337;1260;107503;-78
2023/02/17 12:56:30;;;;;;;24.60;18.30;;;;;;;12.61;52.07;99695.02;145596;1256;107999;-84
2023/02/17 12:59:52;;;;;;;30.80;19.20;;;;;;;12.61;52.95;99682.13;145772;1252;107563;-82
2023/02/17 13:03:14;;;;;;;27.50;19.70;;;;;;;12.55;53.83;99681.23;145587;1257;96653;-75
2023/02/17 13:06:41;;;;;;;27.70;19.20;;;;;;;12.37;54.10;99664.93;145177;1256;96806;-74
2023/02/17 13:10:05;;;;;;;26.30;18.40;;;;;;;12.15;54.52;99656.80;145356;1264;96581;-75
2023/02/17 13:13:29;;;;;;;26.60;17.90;;;;;;;11.97;55.02;99657.91;145323;1254;98549;-76
2023/02/17 13:16:52;;;;;;;27.20;18.70;;;;;;;11.78;55.57;99654.80;145244;1256;97901;-76
2023/02/17 13:20:14;;;;;;;27.30;18.50;;;;;;;11.67;56.52;99645.15;145086;1257;96569;-80
2023/02/17 13:23:40;;;;;;;26.20;18.00;;;;;;;11.56;56.68;99637.57;145430;1257;96914;-74
2023/02/17 13:27:26;;;;;;;24.30;17.80;;;;;;;11.36;56.98;99631.16;145090;1257;96651;-75
2023/02/17 13:30:51;;;;;;;25.00;17.60;;;;;;;11.23;57.64;99622.86;145126;1264;96588;-75
2023/02/17 13:34:30;;;;;;;20.40;16.40;;;;;;;11.16;58.01;99616.89;145246;1257;97045;-74
2023/02/17 13:37:53;;;;;;;24.90;16.60;;;;;;;11.05;58.53;99614.00;145366;1257;96546;-75
2023/02/17 13:41:15;;;;;;;23.50;16.00;;;;;;;11.06;58.81;99611.41;145118;1258;97744;-75
2023/02/17 13:44:40;;;;;;;20.10;16.20;;;;;;;10.97;59.30;99606.80;145584;1258;97048;-75
2023/02/17 13:48:16;;;;;;;21.70;16.40;;;;;;;10.90;59.72;99601.52;145722;1253;96673;-75
2023/02/17 13:51:38;;;;;;;21.40;14.80;;;;;;;10.86;59.80;99605.13;145774;1251;96676;-74
2023/02/17 13:55:03;;;;;;;18.50;14.50;;;;;;;10.88;60.17;99597.33;145658;1257;96568;-74
2023/02/17 13:58:34;;;;;;;21.90;14.80;;;;;;;10.88;60.66;99599.60;145467;1257;96590;-76
2023/02/17 14:01:56;;;;;;;27.50;15.40;;;;;;;10.99;61.18;99589.27;145307;1255;97386;-75
2023/02/17 14:05:22;;;;;;;24.00;14.40;;;;;;;11.03;61.62;99586.87;145244;1257;97464;-72
2023/02/17 14:08:44;;;;;;;23.00;14.50;;;;;;;11.10;62.07;99584.85;145533;1254;96862;-74
2023/02/17 14:12:09;;;;;;;18.50;14.40;;;;;;;11.29;61.85;99589.70;145197;1258;97865;-74
2023/02/17 14:15:32;;;;;;;20.20;14.00;;;;;;;11.45;61.79;99575.21;145208;1256;96728;-74
2023/02/17 14:19:20;;;;;;;19.20;13.30;;;;;;;11.57;61.50;99562.75;145625;1254;96550;-73
2023/02/17 14:22:42;;;;;;;21.60;14.40;;;;;;;11.69;61.11;99552.39;144769;1262;96757;-73
2023/02/17 14:26:37;;;;;;;18.50;13.00;;;;;;;11.78;60.98;99539.20;144595;1257;97466;-73
2023/02/17 14:29:59;;;;;;;21.80;14.80;;;;;;;11.86;60.69;99530.21;145044;1262;96657;-73
2023/02/17 14:33:23;;;;;;;19.40;13.30;;;;;;;11.90;60.60;99523.10;144667;1261;97946;-73
2023/02/17 14:36:46;;;;;;;17.60;13.00;;;;;;;11.93;60.41;99513.20;144925;1257;96764;-73
2023/02/17 14:40:17;;;;;;;20.70;13.00;;;;;;;11.96;60.25;99505.72;144882;1263;97494;-74
2023/02/17 14:43:38;;;;;;;17.90;13.30;;;;;;;11.99;60.13;99495.45;144779;1263;96652;-80
2023/02/17 14:47:01;;;;;;;15.50;12.20;;;;;;;12.02;59.78;99490.60;144576;1264;96766;-73
2023/02/17 14:50:23;;;;;;;15.70;12.60;;;;;;;12.03;59.74;99477.18;144703;1273;96657;-73
2023/02/17 14:53:46;;;;;;;15.70;12.80;;;;;;;12.04;59.54;99470.39;144686;1263;97958;-76
2023/02/17 14:57:12;;;;;;;16.90;12.80;;;;;;;12.05;59.46;99463.77;145035;1257;96822;-76
2023/02/17 15:00:37;;;;;;;17.70;12.10;;;;;;;12.07;59.33;99462.56;145728;1253;97829;-76
2023/02/17 15:04:02;;;;;;;19.80;13.00;;;;;;;12.08;59.21;99453.34;145395;1257;96547;-74
2023/02/17 15:07:24;;;;;;;15.70;12.10;;;;;;;12.10;59.13;99449.86;145788;1256;97447;-72
2023/02/17 15:10:46;;;;;;;16.30;12.50;;;;;;;12.10;58.88;99437.33;145772;1253;96539;-73
2023/02/17 15:14:12;;;;;;;20.00;13.70;;;;;;;12.10;58.92;99436.27;145485;1258;96572;-73
2023/02/17 15:17:34;;;;;;;15.30;11.00;;;;;;;12.10;58.84;99432.61;145472;1257;109534;-76
2023/02/17 15:20:56;;;;;;;16.30;12.60;;;;;;;12.10;58.63;99427.73;145268;1255;96708;-73
2023/02/17 15:24:26;;;;;;;14.00;11.00;;;;;;;12.10;58.49;99426.17;145478;1257;96606;-73
2023/02/17 15:27:53;;;;;;;14.60;11.00;;;;;;;12.09;58.60;99418.16;145421;1257;102246;-74
2023/02/17 15:31:16;;;;;;;13.20;11.30;;;;;;;12.09;58.61;99409.63;145232;1257;97483;-75